sensor_id;sensor_type;location;lat;lon;timestamp;pressure;altitude;pressure_sealevel;temperature;humidity
72798;BME280;61084;55.816;37.036;2024-01-07T00:01:12;99734.88;;;-16.55;56.09
72798;BME280;61084;55.816;37.036;2024-01-07T00:03:40;99743.13;;;-16.57;55.92
72798;BME280;61084;55.816;37.036;2024-01-07T00:06:09;99752.91;;;-16.62;55.88
72798;BME280;61084;55.816;37.036;2024-01-07T00:08:35;99763.44;;;-16.67;55.92
72798;BME280;61084;55.816;37.036;2024-01-07T00:11:01;99774.69;;;-16.75;55.75
72798;BME280;61084;55.816;37.036;2024-01-07T00:13:27;99768.94;;;-16.87;56.65
72798;BME280;61084;55.816;37.036;2024-01-07T00:15:53;99767.88;;;-16.91;56.53
72798;BME280;61084;55.816;37.036;2024-01-07T00:18:21;99766.84;;;-16.94;56.07
72798;BME280;61084;55.816;37.036;2024-01-07T00:20:47;99782.47;;;-16.98;55.33
72798;BME280;61084;55.816;37.036;2024-01-07T00:23:14;99781.34;;;-17.03;56.13
72798;BME280;61084;55.816;37.036;2024-01-07T00:25:40;99783.94;;;-17.02;56.09
72798;BME280;61084;55.816;37.036;2024-01-07T00:28:05;99782.88;;;-17.06;55.32
72798;BME280;61084;55.816;37.036;2024-01-07T00:30:32;99787.97;;;-17.04;56.09
72798;BME280;61084;55.816;37.036;2024-01-07T00:33:00;99786.16;;;-17.07;55.79
72798;BME280;61084;55.816;37.036;2024-01-07T00:35:26;99790.31;;;-17.07;55.67
72798;BME280;61084;55.816;37.036;2024-01-07T00:37:52;99790.88;;;-17.11;55.92
72798;BME280;61084;55.816;37.036;2024-01-07T00:40:18;99778.19;;;-17.14;55.63
72798;BME280;61084;55.816;37.036;2024-01-07T00:42:44;99793.69;;;-17.20;55.14
72798;BME280;61084;55.816;37.036;2024-01-07T00:45:10;99791.03;;;-17.23;55.41
72798;BME280;61084;55.816;37.036;2024-01-07T00:47:36;99798.63;;;-17.21;55.85
72798;BME280;61084;55.816;37.036;2024-01-07T00:50:02;99808.59;;;-17.23;55.94
72798;BME280;61084;55.816;37.036;2024-01-07T00:52:29;99819.50;;;-17.22;55.95
72798;BME280;61084;55.816;37.036;2024-01-07T00:54:55;99819.19;;;-17.27;55.15
72798;BME280;61084;55.816;37.036;2024-01-07T00:57:22;99818.13;;;-17.30;55.25
72798;BME280;61084;55.816;37.036;2024-01-07T00:59:48;99818.72;;;-17.34;55.39
72798;BME280;61084;55.816;37.036;2024-01-07T01:02:16;99829.63;;;-17.34;55.60
72798;BME280;61084;55.816;37.036;2024-01-07T01:04:42;99831.34;;;-17.33;55.25
72798;BME280;61084;55.816;37.036;2024-01-07T01:07:08;99836.94;;;-17.37;54.78
72798;BME280;61084;55.816;37.036;2024-01-07T01:09:34;99838.09;;;-17.45;55.07
72798;BME280;61084;55.816;37.036;2024-01-07T01:12:00;99846.50;;;-17.44;54.84
72798;BME280;61084;55.816;37.036;2024-01-07T01:14:27;99848.22;;;-17.43;55.20
72798;BME280;61084;55.816;37.036;2024-01-07T01:16:53;99861.41;;;-17.46;55.20
72798;BME280;61084;55.816;37.036;2024-01-07T01:19:19;99849.59;;;-17.48;54.91
72798;BME280;61084;55.816;37.036;2024-01-07T01:21:45;99852.19;;;-17.47;55.24
72798;BME280;61084;55.816;37.036;2024-01-07T01:24:11;99862.81;;;-17.51;54.60
72798;BME280;61084;55.816;37.036;2024-01-07T01:26:38;99876.59;;;-17.57;54.43
72798;BME280;61084;55.816;37.036;2024-01-07T01:29:05;99871.09;;;-17.65;54.96
72798;BME280;61084;55.816;37.036;2024-01-07T01:31:31;99874.47;;;-17.64;54.94
72798;BME280;61084;55.816;37.036;2024-01-07T01:33:57;99878.78;;;-17.75;54.03
72798;BME280;61084;55.816;37.036;2024-01-07T01:36:24;99889.38;;;-17.79;54.72
72798;BME280;61084;55.816;37.036;2024-01-07T01:38:50;99900.94;;;-17.81;54.44
72798;BME280;61084;55.816;37.036;2024-01-07T01:41:16;99895.81;;;-17.83;54.49
72798;BME280;61084;55.816;37.036;2024-01-07T01:43:42;99905.00;;;-17.83;54.36
72798;BME280;61084;55.816;37.036;2024-01-07T01:46:08;99900.53;;;-17.87;54.56
72798;BME280;61084;55.816;37.036;2024-01-07T01:48:35;99896.56;;;-17.97;54.72
72798;BME280;61084;55.816;37.036;2024-01-07T01:51:02;99904.22;;;-18.07;54.70
72798;BME280;61084;55.816;37.036;2024-01-07T01:53:28;99910.75;;;-18.09;55.21
72798;BME280;61084;55.816;37.036;2024-01-07T01:55:57;99915.78;;;-18.09;54.78
72798;BME280;61084;55.816;37.036;2024-01-07T01:58:23;99912.97;;;-18.13;54.81
72798;BME280;61084;55.816;37.036;2024-01-07T02:00:49;99931.06;;;-18.17;54.49
72798;BME280;61084;55.816;37.036;2024-01-07T02:03:17;99931.63;;;-18.21;54.78
72798;BME280;61084;55.816;37.036;2024-01-07T02:05:44;99935.44;;;-18.26;55.03
72798;BME280;61084;55.816;37.036;2024-01-07T02:08:10;99931.56;;;-18.34;55.14
72798;BME280;61084;55.816;37.036;2024-01-07T02:10:36;99941.47;;;-18.36;54.74
72798;BME280;61084;55.816;37.036;2024-01-07T02:13:03;99942.78;;;-18.41;54.49
72798;BME280;61084;55.816;37.036;2024-01-07T02:15:30;99944.41;;;-18.41;54.28
72798;BME280;61084;55.816;37.036;2024-01-07T02:17:56;99940.78;;;-18.46;54.54
72798;BME280;61084;55.816;37.036;2024-01-07T02:20:23;99934.94;;;-18.58;54.18
72798;BME280;61084;55.816;37.036;2024-01-07T02:22:50;99949.63;;;-18.63;54.46
72798;BME280;61084;55.816;37.036;2024-01-07T02:25:17;99940.59;;;-18.61;55.04
72798;BME280;61084;55.816;37.036;2024-01-07T02:27:44;99949.63;;;-18.63;54.59
72798;BME280;61084;55.816;37.036;2024-01-07T02:30:11;99943.31;;;-18.70;54.48
72798;BME280;61084;55.816;37.036;2024-01-07T02:32:37;99938.56;;;-18.78;54.50
72798;BME280;61084;55.816;37.036;2024-01-07T02:35:04;99937.81;;;-18.77;54.95
72798;BME280;61084;55.816;37.036;2024-01-07T02:37:30;99941.28;;;-18.75;55.10
72798;BME280;61084;55.816;37.036;2024-01-07T02:39:56;99939.75;;;-18.73;54.42
72798;BME280;61084;55.816;37.036;2024-01-07T02:42:22;99943.56;;;-18.78;54.60
72798;BME280;61084;55.816;37.036;2024-01-07T02:44:48;99956.19;;;-18.77;54.80
72798;BME280;61084;55.816;37.036;2024-01-07T02:47:14;99962.41;;;-18.83;55.32
72798;BME280;61084;55.816;37.036;2024-01-07T02:49:40;99962.50;;;-18.93;55.18
72798;BME280;61084;55.816;37.036;2024-01-07T02:52:06;99958.50;;;-19.03;54.85
72798;BME280;61084;55.816;37.036;2024-01-07T02:54:32;99967.06;;;-19.11;55.11
72798;BME280;61084;55.816;37.036;2024-01-07T02:56:58;99984.38;;;-19.14;54.79
72798;BME280;61084;55.816;37.036;2024-01-07T02:59:24;99991.88;;;-19.14;54.64
72798;BME280;61084;55.816;37.036;2024-01-07T03:01:49;99999.22;;;-19.15;54.77
72798;BME280;61084;55.816;37.036;2024-01-07T03:04:16;100014.22;;;-19.15;54.17
72798;BME280;61084;55.816;37.036;2024-01-07T03:06:42;100006.63;;;-19.17;54.72
72798;BME280;61084;55.816;37.036;2024-01-07T03:09:08;100008.47;;;-19.14;54.97
72798;BME280;61084;55.816;37.036;2024-01-07T03:11:39;100017.16;;;-19.21;53.82
72798;BME280;61084;55.816;37.036;2024-01-07T03:14:06;100025.94;;;-19.26;55.53
72798;BME280;61084;55.816;37.036;2024-01-07T03:16:32;100022.72;;;-19.36;54.64
72798;BME280;61084;55.816;37.036;2024-01-07T03:18:58;100036.81;;;-19.37;54.82
72798;BME280;61084;55.816;37.036;2024-01-07T03:21:24;100034.00;;;-19.42;54.63
72798;BME280;61084;55.816;37.036;2024-01-07T03:23:51;100028.66;;;-19.58;53.61
72798;BME280;61084;55.816;37.036;2024-01-07T03:26:18;100036.78;;;-19.60;54.78
72798;BME280;61084;55.816;37.036;2024-01-07T03:28:45;100030.28;;;-19.58;54.00
72798;BME280;61084;55.816;37.036;2024-01-07T03:31:13;100040.00;;;-19.61;53.87
72798;BME280;61084;55.816;37.036;2024-01-07T03:33:40;100045.88;;;-19.61;53.97
72798;BME280;61084;55.816;37.036;2024-01-07T03:36:07;100042.75;;;-19.58;54.48
72798;BME280;61084;55.816;37.036;2024-01-07T03:38:34;100038.97;;;-19.53;54.02
72798;BME280;61084;55.816;37.036;2024-01-07T03:41:00;100035.81;;;-19.62;53.75
72798;BME280;61084;55.816;37.036;2024-01-07T03:43:26;100046.03;;;-19.59;54.40
72798;BME280;61084;55.816;37.036;2024-01-07T03:45:52;100044.28;;;-19.60;54.32
72798;BME280;61084;55.816;37.036;2024-01-07T03:48:18;100055.13;;;-19.60;54.66
72798;BME280;61084;55.816;37.036;2024-01-07T03:50:45;100056.03;;;-19.59;54.24
72798;BME280;61084;55.816;37.036;2024-01-07T03:53:12;100060.25;;;-19.58;54.05
72798;BME280;61084;55.816;37.036;2024-01-07T03:55:38;100061.84;;;-19.59;54.37
72798;BME280;61084;55.816;37.036;2024-01-07T03:58:05;100071.66;;;-19.62;53.87
72798;BME280;61084;55.816;37.036;2024-01-07T04:00:32;100069.78;;;-19.64;54.26
72798;BME280;61084;55.816;37.036;2024-01-07T04:02:58;100071.94;;;-19.69;53.49
72798;BME280;61084;55.816;37.036;2024-01-07T04:05:24;100075.59;;;-19.75;54.03
72798;BME280;61084;55.816;37.036;2024-01-07T04:07:50;100079.00;;;-19.85;54.03
72798;BME280;61084;55.816;37.036;2024-01-07T04:10:17;100078.28;;;-19.84;53.98
72798;BME280;61084;55.816;37.036;2024-01-07T04:12:44;100075.88;;;-19.82;53.95
72798;BME280;61084;55.816;37.036;2024-01-07T04:15:11;100089.50;;;-19.79;53.76
72798;BME280;61084;55.816;37.036;2024-01-07T04:17:37;100092.00;;;-19.79;54.05
72798;BME280;61084;55.816;37.036;2024-01-07T04:20:04;100104.69;;;-19.76;53.71
72798;BME280;61084;55.816;37.036;2024-01-07T04:22:30;100107.19;;;-19.76;53.51
72798;BME280;61084;55.816;37.036;2024-01-07T04:24:55;100111.09;;;-19.79;53.77
72798;BME280;61084;55.816;37.036;2024-01-07T04:27:21;100111.25;;;-19.88;52.97
72798;BME280;61084;55.816;37.036;2024-01-07T04:29:47;100129.47;;;-19.89;53.46
72798;BME280;61084;55.816;37.036;2024-01-07T04:32:13;100117.75;;;-19.90;53.81
72798;BME280;61084;55.816;37.036;2024-01-07T04:34:39;100126.88;;;-19.90;53.41
72798;BME280;61084;55.816;37.036;2024-01-07T04:37:05;100128.66;;;-19.99;53.59
72798;BME280;61084;55.816;37.036;2024-01-07T04:39:30;100135.69;;;-20.05;53.33
72798;BME280;61084;55.816;37.036;2024-01-07T04:41:56;100138.69;;;-20.09;53.37
72798;BME280;61084;55.816;37.036;2024-01-07T04:44:23;100134.09;;;-20.15;53.34
72798;BME280;61084;55.816;37.036;2024-01-07T04:46:48;100147.34;;;-20.16;53.45
72798;BME280;61084;55.816;37.036;2024-01-07T04:49:15;100142.91;;;-20.20;52.81
72798;BME280;61084;55.816;37.036;2024-01-07T04:51:41;100145.13;;;-20.23;53.56
72798;BME280;61084;55.816;37.036;2024-01-07T04:54:07;100150.28;;;-20.32;52.49
72798;BME280;61084;55.816;37.036;2024-01-07T04:56:33;100157.75;;;-20.32;53.53
72798;BME280;61084;55.816;37.036;2024-01-07T04:58:59;100163.84;;;-20.28;53.23
72798;BME280;61084;55.816;37.036;2024-01-07T05:01:25;100160.72;;;-20.26;53.13
72798;BME280;61084;55.816;37.036;2024-01-07T05:03:51;100168.22;;;-20.26;53.09
72798;BME280;61084;55.816;37.036;2024-01-07T05:06:17;100177.94;;;-20.29;53.43
72798;BME280;61084;55.816;37.036;2024-01-07T05:08:43;100185.56;;;-20.27;53.48
72798;BME280;61084;55.816;37.036;2024-01-07T05:11:09;100193.28;;;-20.24;53.65
72798;BME280;61084;55.816;37.036;2024-01-07T05:13:35;100201.53;;;-20.25;52.60
72798;BME280;61084;55.816;37.036;2024-01-07T05:16:01;100201.78;;;-20.32;53.17
72798;BME280;61084;55.816;37.036;2024-01-07T05:18:28;100198.19;;;-20.46;52.78
72798;BME280;61084;55.816;37.036;2024-01-07T05:20:54;100202.69;;;-20.52;52.71
72798;BME280;61084;55.816;37.036;2024-01-07T05:23:20;100217.78;;;-20.50;52.84
72798;BME280;61084;55.816;37.036;2024-01-07T05:25:46;100216.28;;;-20.58;52.61
72798;BME280;61084;55.816;37.036;2024-01-07T05:28:15;100223.19;;;-20.66;53.25
72798;BME280;61084;55.816;37.036;2024-01-07T05:30:44;100228.53;;;-20.71;51.93
72798;BME280;61084;55.816;37.036;2024-01-07T05:33:10;100242.22;;;-20.76;52.05
72798;BME280;61084;55.816;37.036;2024-01-07T05:35:36;100232.38;;;-20.85;51.89
72798;BME280;61084;55.816;37.036;2024-01-07T05:38:02;100230.53;;;-20.87;52.70
72798;BME280;61084;55.816;37.036;2024-01-07T05:40:28;100237.63;;;-20.82;52.70
72798;BME280;61084;55.816;37.036;2024-01-07T05:42:54;100239.75;;;-20.86;52.58
72798;BME280;61084;55.816;37.036;2024-01-07T05:45:20;100233.38;;;-20.93;53.27
72798;BME280;61084;55.816;37.036;2024-01-07T05:47:45;100237.75;;;-21.01;53.25
72798;BME280;61084;55.816;37.036;2024-01-07T05:50:11;100237.53;;;-21.04;52.95
72798;BME280;61084;55.816;37.036;2024-01-07T05:52:41;100233.28;;;-21.05;52.88
72798;BME280;61084;55.816;37.036;2024-01-07T05:55:08;100238.41;;;-21.03;52.70
72798;BME280;61084;55.816;37.036;2024-01-07T05:57:33;100235.03;;;-21.04;53.11
72798;BME280;61084;55.816;37.036;2024-01-07T05:59:59;100234.16;;;-21.14;53.10
72798;BME280;61084;55.816;37.036;2024-01-07T06:02:25;100251.31;;;-21.17;53.39
72798;BME280;61084;55.816;37.036;2024-01-07T06:04:51;100247.94;;;-21.18;53.35
72798;BME280;61084;55.816;37.036;2024-01-07T06:07:17;100251.69;;;-21.13;53.32
72798;BME280;61084;55.816;37.036;2024-01-07T06:09:43;100254.97;;;-21.14;53.21
72798;BME280;61084;55.816;37.036;2024-01-07T06:12:09;100256.34;;;-21.07;53.17
72798;BME280;61084;55.816;37.036;2024-01-07T06:14:35;100254.97;;;-21.04;53.57
72798;BME280;61084;55.816;37.036;2024-01-07T06:17:01;100255.31;;;-20.99;53.01
72798;BME280;61084;55.816;37.036;2024-01-07T06:19:26;100249.56;;;-20.98;52.97
72798;BME280;61084;55.816;37.036;2024-01-07T06:21:52;100255.69;;;-20.94;53.13
72798;BME280;61084;55.816;37.036;2024-01-07T06:24:18;100258.19;;;-20.94;52.94
72798;BME280;61084;55.816;37.036;2024-01-07T06:26:44;100270.50;;;-20.96;52.70
72798;BME280;61084;55.816;37.036;2024-01-07T06:29:10;100283.84;;;-20.95;53.02
72798;BME280;61084;55.816;37.036;2024-01-07T06:31:36;100293.19;;;-20.93;52.59
72798;BME280;61084;55.816;37.036;2024-01-07T06:34:02;100296.44;;;-20.94;52.87
72798;BME280;61084;55.816;37.036;2024-01-07T06:36:28;100297.19;;;-20.95;52.91
72798;BME280;61084;55.816;37.036;2024-01-07T06:38:53;100305.78;;;-20.91;53.09
72798;BME280;61084;55.816;37.036;2024-01-07T06:41:19;100325.72;;;-20.91;53.03
72798;BME280;61084;55.816;37.036;2024-01-07T06:43:45;100320.00;;;-20.90;53.17
72798;BME280;61084;55.816;37.036;2024-01-07T06:46:11;100327.75;;;-20.87;52.75
72798;BME280;61084;55.816;37.036;2024-01-07T06:48:37;100329.47;;;-20.86;53.14
72798;BME280;61084;55.816;37.036;2024-01-07T06:51:03;100336.22;;;-20.85;52.70
72798;BME280;61084;55.816;37.036;2024-01-07T06:53:29;100324.50;;;-20.86;52.99
72798;BME280;61084;55.816;37.036;2024-01-07T06:55:55;100331.69;;;-20.89;52.83
72798;BME280;61084;55.816;37.036;2024-01-07T06:58:20;100334.34;;;-20.88;52.98
72798;BME280;61084;55.816;37.036;2024-01-07T07:00:46;100334.56;;;-20.85;52.97
72798;BME280;61084;55.816;37.036;2024-01-07T07:03:12;100336.72;;;-20.79;52.65
72798;BME280;61084;55.816;37.036;2024-01-07T07:05:38;100349.31;;;-20.78;52.49
72798;BME280;61084;55.816;37.036;2024-01-07T07:08:05;100341.31;;;-20.84;52.63
72798;BME280;61084;55.816;37.036;2024-01-07T07:10:31;100352.41;;;-20.90;52.47
72798;BME280;61084;55.816;37.036;2024-01-07T07:12:57;100348.91;;;-20.92;52.88
72798;BME280;61084;55.816;37.036;2024-01-07T07:15:23;100357.25;;;-20.92;52.52
72798;BME280;61084;55.816;37.036;2024-01-07T07:17:52;100350.28;;;-20.86;52.71
72798;BME280;61084;55.816;37.036;2024-01-07T07:20:18;100361.53;;;-20.81;52.46
72798;BME280;61084;55.816;37.036;2024-01-07T07:22:45;100359.03;;;-20.81;52.35
72798;BME280;61084;55.816;37.036;2024-01-07T07:25:11;100366.25;;;-20.84;53.09
72798;BME280;61084;55.816;37.036;2024-01-07T07:27:37;100372.22;;;-20.82;53.23
72798;BME280;61084;55.816;37.036;2024-01-07T07:30:05;100373.72;;;-20.84;52.54
72798;BME280;61084;55.816;37.036;2024-01-07T07:32:31;100380.31;;;-20.84;52.48
72798;BME280;61084;55.816;37.036;2024-01-07T07:34:57;100387.91;;;-20.83;52.57
72798;BME280;61084;55.816;37.036;2024-01-07T07:37:23;100384.09;;;-20.79;53.08
72798;BME280;61084;55.816;37.036;2024-01-07T07:39:51;100389.31;;;-20.76;52.99
72798;BME280;61084;55.816;37.036;2024-01-07T07:42:16;100398.03;;;-20.81;53.35
72798;BME280;61084;55.816;37.036;2024-01-07T07:44:42;100390.78;;;-20.88;52.81
72798;BME280;61084;55.816;37.036;2024-01-07T07:47:08;100398.38;;;-20.87;52.50
72798;BME280;61084;55.816;37.036;2024-01-07T07:49:37;100401.66;;;-20.78;53.06
72798;BME280;61084;55.816;37.036;2024-01-07T07:52:09;100404.94;;;-20.69;52.83
72798;BME280;61084;55.816;37.036;2024-01-07T07:54:38;100419.06;;;-20.59;53.12
72798;BME280;61084;55.816;37.036;2024-01-07T07:57:04;100416.91;;;-20.55;53.06
72798;BME280;61084;55.816;37.036;2024-01-07T07:59:30;100419.78;;;-20.60;53.30
72798;BME280;61084;55.816;37.036;2024-01-07T08:01:56;100417.78;;;-20.74;52.14
72798;BME280;61084;55.816;37.036;2024-01-07T08:04:22;100424.69;;;-20.80;52.77
72798;BME280;61084;55.816;37.036;2024-01-07T08:06:48;100424.09;;;-20.78;53.11
72798;BME280;61084;55.816;37.036;2024-01-07T08:09:14;100423.50;;;-20.65;53.48
72798;BME280;61084;55.816;37.036;2024-01-07T08:11:40;100425.38;;;-20.63;53.46
72798;BME280;61084;55.816;37.036;2024-01-07T08:14:06;100434.34;;;-20.65;52.98
72798;BME280;61084;55.816;37.036;2024-01-07T08:16:32;100440.84;;;-20.67;52.83
72798;BME280;61084;55.816;37.036;2024-01-07T08:18:58;100443.44;;;-20.65;53.68
72798;BME280;61084;55.816;37.036;2024-01-07T08:21:24;100443.59;;;-20.64;53.82
72798;BME280;61084;55.816;37.036;2024-01-07T08:23:50;100441.72;;;-20.66;53.45
72798;BME280;61084;55.816;37.036;2024-01-07T08:26:20;100449.34;;;-20.55;54.02
72798;BME280;61084;55.816;37.036;2024-01-07T08:28:46;100446.63;;;-20.48;53.96
72798;BME280;61084;55.816;37.036;2024-01-07T08:31:12;100450.66;;;-20.40;54.28
72798;BME280;61084;55.816;37.036;2024-01-07T08:33:38;100448.78;;;-20.32;54.18
72798;BME280;61084;55.816;37.036;2024-01-07T08:36:05;100448.56;;;-20.25;53.83
72798;BME280;61084;55.816;37.036;2024-01-07T08:38:31;100449.53;;;-20.13;53.82
72798;BME280;61084;55.816;37.036;2024-01-07T08:40:57;100456.03;;;-20.05;53.84
72798;BME280;61084;55.816;37.036;2024-01-07T08:43:23;100456.78;;;-20.06;53.67
72798;BME280;61084;55.816;37.036;2024-01-07T08:45:50;100456.50;;;-20.09;53.72
72798;BME280;61084;55.816;37.036;2024-01-07T08:48:16;100453.91;;;-20.00;53.64
72798;BME280;61084;55.816;37.036;2024-01-07T08:50:42;100461.66;;;-19.97;54.09
72798;BME280;61084;55.816;37.036;2024-01-07T08:53:08;100453.81;;;-19.92;53.86
72798;BME280;61084;55.816;37.036;2024-01-07T08:55:34;100464.41;;;-19.84;53.82
72798;BME280;61084;55.816;37.036;2024-01-07T08:58:00;100453.91;;;-19.90;53.72
72798;BME280;61084;55.816;37.036;2024-01-07T09:00:26;100464.66;;;-19.81;53.65
72798;BME280;61084;55.816;37.036;2024-01-07T09:02:57;100467.41;;;-19.78;53.81
72798;BME280;61084;55.816;37.036;2024-01-07T09:05:23;100456.16;;;-19.73;53.35
72798;BME280;61084;55.816;37.036;2024-01-07T09:07:50;100463.28;;;-19.68;53.78
72798;BME280;61084;55.816;37.036;2024-01-07T09:10:16;100463.78;;;-19.62;53.81
72798;BME280;61084;55.816;37.036;2024-01-07T09:12:44;100453.03;;;-19.61;53.62
72798;BME280;61084;55.816;37.036;2024-01-07T09:15:10;100461.38;;;-19.50;54.25
72798;BME280;61084;55.816;37.036;2024-01-07T09:17:36;100465.88;;;-19.46;53.81
72798;BME280;61084;55.816;37.036;2024-01-07T09:20:04;100456.41;;;-19.40;53.80
72798;BME280;61084;55.816;37.036;2024-01-07T09:22:33;100471.88;;;-19.34;53.45
72798;BME280;61084;55.816;37.036;2024-01-07T09:25:03;100470.09;;;-19.25;53.93
72798;BME280;61084;55.816;37.036;2024-01-07T09:27:32;100469.56;;;-19.21;54.02
72798;BME280;61084;55.816;37.036;2024-01-07T09:29:59;100482.53;;;-19.15;53.74
72798;BME280;61084;55.816;37.036;2024-01-07T09:32:25;100471.19;;;-19.11;53.64
72798;BME280;61084;55.816;37.036;2024-01-07T09:34:51;100471.16;;;-19.01;54.14
72798;BME280;61084;55.816;37.036;2024-01-07T09:37:17;100480.53;;;-18.99;53.97
72798;BME280;61084;55.816;37.036;2024-01-07T09:39:43;100477.88;;;-19.00;54.23
72798;BME280;61084;55.816;37.036;2024-01-07T09:42:12;100482.41;;;-18.96;53.99
72798;BME280;61084;55.816;37.036;2024-01-07T09:44:43;100470.63;;;-18.97;53.65
72798;BME280;61084;55.816;37.036;2024-01-07T09:47:15;100475.38;;;-18.90;54.27
72798;BME280;61084;55.816;37.036;2024-01-07T09:49:42;100472.59;;;-18.83;53.48
72798;BME280;61084;55.816;37.036;2024-01-07T09:52:10;100469.44;;;-18.81;53.27
72798;BME280;61084;55.816;37.036;2024-01-07T09:54:37;100469.94;;;-18.75;53.58
72798;BME280;61084;55.816;37.036;2024-01-07T09:57:07;100475.31;;;-18.70;53.79
72798;BME280;61084;55.816;37.036;2024-01-07T09:59:36;100489.66;;;-18.68;53.72
72798;BME280;61084;55.816;37.036;2024-01-07T10:02:03;100477.31;;;-18.76;53.72
72798;BME280;61084;55.816;37.036;2024-01-07T10:04:29;100484.28;;;-18.72;53.51
72798;BME280;61084;55.816;37.036;2024-01-07T10:06:58;100485.06;;;-18.73;54.11
72798;BME280;61084;55.816;37.036;2024-01-07T10:09:28;100481.94;;;-18.71;53.83
72798;BME280;61084;55.816;37.036;2024-01-07T10:11:54;100484.91;;;-18.65;53.63
72798;BME280;61084;55.816;37.036;2024-01-07T10:14:20;100478.00;;;-18.57;54.58
72798;BME280;61084;55.816;37.036;2024-01-07T10:16:50;100489.22;;;-18.52;53.55
72798;BME280;61084;55.816;37.036;2024-01-07T10:19:20;100485.97;;;-18.51;54.16
72798;BME280;61084;55.816;37.036;2024-01-07T10:22:07;100487.88;;;-18.37;54.11
72798;BME280;61084;55.816;37.036;2024-01-07T10:24:38;100493.22;;;-18.32;54.49
72798;BME280;61084;55.816;37.036;2024-01-07T10:27:05;100486.94;;;-18.27;54.02
72798;BME280;61084;55.816;37.036;2024-01-07T10:29:32;100490.69;;;-18.22;54.35
72798;BME280;61084;55.816;37.036;2024-01-07T10:32:02;100490.81;;;-18.21;53.78
72798;BME280;61084;55.816;37.036;2024-01-07T10:34:31;100488.28;;;-18.21;53.71
72798;BME280;61084;55.816;37.036;2024-01-07T10:37:02;100485.16;;;-18.18;53.80
72798;BME280;61084;55.816;37.036;2024-01-07T10:39:29;100489.56;;;-18.26;53.48
72798;BME280;61084;55.816;37.036;2024-01-07T10:41:56;100485.91;;;-18.19;53.74
72798;BME280;61084;55.816;37.036;2024-01-07T10:44:29;100485.63;;;-18.12;54.07
72798;BME280;61084;55.816;37.036;2024-01-07T10:46:56;100490.19;;;-18.07;53.86
72798;BME280;61084;55.816;37.036;2024-01-07T10:49:27;100492.53;;;-17.98;54.61
72798;BME280;61084;55.816;37.036;2024-01-07T10:52:04;100495.56;;;-18.02;54.47
72798;BME280;61084;55.816;37.036;2024-01-07T10:54:31;100484.91;;;-18.00;54.55
72798;BME280;61084;55.816;37.036;2024-01-07T10:57:12;100499.41;;;-17.96;54.16
72798;BME280;61084;55.816;37.036;2024-01-07T10:59:40;100499.28;;;-17.97;54.28
72798;BME280;61084;55.816;37.036;2024-01-07T11:02:09;100503.41;;;-17.98;53.87
72798;BME280;61084;55.816;37.036;2024-01-07T11:07:29;100501.06;;;-17.96;53.83
72798;BME280;61084;55.816;37.036;2024-01-07T11:10:08;100493.53;;;-17.96;53.59
72798;BME280;61084;55.816;37.036;2024-01-07T11:12:37;100501.16;;;-17.95;54.24
72798;BME280;61084;55.816;37.036;2024-01-07T11:15:04;100495.16;;;-17.97;54.19
72798;BME280;61084;55.816;37.036;2024-01-07T11:19:59;100504.41;;;-17.96;54.30
72798;BME280;61084;55.816;37.036;2024-01-07T11:22:27;100495.03;;;-17.98;53.33
72798;BME280;61084;55.816;37.036;2024-01-07T11:24:55;100502.34;;;-18.01;54.16
72798;BME280;61084;55.816;37.036;2024-01-07T11:27:25;100504.84;;;-18.01;53.90
72798;BME280;61084;55.816;37.036;2024-01-07T11:30:05;100505.94;;;-17.98;53.99
72798;BME280;61084;55.816;37.036;2024-01-07T11:32:35;100496.88;;;-18.07;54.25
72798;BME280;61084;55.816;37.036;2024-01-07T11:35:01;100512.34;;;-18.01;54.20
72798;BME280;61084;55.816;37.036;2024-01-07T11:37:31;100513.44;;;-17.98;54.31
72798;BME280;61084;55.816;37.036;2024-01-07T11:39:57;100518.69;;;-17.95;54.30
72798;BME280;61084;55.816;37.036;2024-01-07T11:42:24;100521.56;;;-17.90;54.09
72798;BME280;61084;55.816;37.036;2024-01-07T11:44:54;100522.44;;;-17.90;53.93
72798;BME280;61084;55.816;37.036;2024-01-07T11:47:22;100517.81;;;-17.95;53.78
72798;BME280;61084;55.816;37.036;2024-01-07T11:49:48;100529.81;;;-17.91;54.45
72798;BME280;61084;55.816;37.036;2024-01-07T11:52:17;100533.09;;;-17.92;53.54
72798;BME280;61084;55.816;37.036;2024-01-07T11:54:44;100529.59;;;-17.94;54.00
72798;BME280;61084;55.816;37.036;2024-01-07T11:57:10;100526.09;;;-17.96;54.03
72798;BME280;61084;55.816;37.036;2024-01-07T11:59:36;100532.09;;;-17.94;53.76
72798;BME280;61084;55.816;37.036;2024-01-07T12:02:03;100531.59;;;-18.00;54.25
72798;BME280;61084;55.816;37.036;2024-01-07T12:04:33;100540.88;;;-17.99;54.25
72798;BME280;61084;55.816;37.036;2024-01-07T12:06:59;100534.66;;;-18.04;54.07
72798;BME280;61084;55.816;37.036;2024-01-07T12:09:26;100540.63;;;-18.02;53.65
72798;BME280;61084;55.816;37.036;2024-01-07T12:11:52;100547.06;;;-18.06;53.85
72798;BME280;61084;55.816;37.036;2024-01-07T12:14:19;100542.78;;;-18.07;53.90
72798;BME280;61084;55.816;37.036;2024-01-07T12:16:46;100548.31;;;-18.11;54.27
72798;BME280;61084;55.816;37.036;2024-01-07T12:19:12;100552.69;;;-18.08;53.74
72798;BME280;61084;55.816;37.036;2024-01-07T12:21:38;100543.78;;;-18.05;53.95
72798;BME280;61084;55.816;37.036;2024-01-07T12:24:05;100556.09;;;-18.08;53.69
72798;BME280;61084;55.816;37.036;2024-01-07T12:26:31;100553.22;;;-18.12;54.10
72798;BME280;61084;55.816;37.036;2024-01-07T12:29:00;100550.84;;;-18.11;54.12
72798;BME280;61084;55.816;37.036;2024-01-07T12:31:33;100545.97;;;-18.09;54.07
72798;BME280;61084;55.816;37.036;2024-01-07T12:34:00;100550.84;;;-18.11;54.09
72798;BME280;61084;55.816;37.036;2024-01-07T12:36:29;100553.75;;;-18.16;53.46